Time;durP1;ratioP1;P1;durP2;ratioP2;P2;SDS_P1;SDS_P2;PMS_P1;PMS_P2;Temp;Humidity;BMP_temperature;BMP_pressure;BME280_temperature;BME280_humidity;BME280_pressure;Samples;Min_cycle;Max_cycle;Signal;HPM_P1;HPM_P2
2022/05/14 00:00:07;;;;;;;;;4.67;2.33;;;;;;;;5080279;27;45285;-77
2022/05/14 00:02:33;;;;;;;;;5.00;3.00;;;;;;;;5080240;27;45290;-77
2022/05/14 00:04:58;;;;;;;;;3.33;3.00;;;;;;;;5079920;27;46227;-77
2022/05/14 00:07:23;;;;;;;;;4.33;4.00;;;;;;;;5080212;28;45261;-76
2022/05/14 00:09:48;;;;;;;;;5.67;3.00;;;;;;;;5080109;28;45348;-77
2022/05/14 00:14:57;;;;;;;;;7.00;3.00;;;;;;;;5079976;27;45778;-76
2022/05/14 00:17:23;;;;;;;;;5.33;3.00;;;;;;;;5080163;28;45330;-76
2022/05/14 00:19:48;;;;;;;;;6.00;4.00;;;;;;;;5079943;28;45221;-76
2022/05/14 00:22:13;;;;;;;;;3.00;3.00;;;;;;;;5080240;27;45209;-76
2022/05/14 00:24:38;;;;;;;;;4.00;3.67;;;;;;;;5079926;28;45393;-76
2022/05/14 00:27:03;;;;;;;;;5.00;3.67;;;;;;;;5079654;28;45522;-75
2022/05/14 00:29:30;;;;;;;;;5.50;2.00;;;;;;;;5079899;27;45216;-76
2022/05/14 00:31:55;;;;;;;;;3.00;3.00;;;;;;;;5080118;28;45392;-76
2022/05/14 00:34:21;;;;;;;;;3.33;1.00;;;;;;;;5079477;28;46427;-76
2022/05/14 00:36:46;;;;;;;;;2.00;2.00;;;;;;;;5079852;27;45348;-76
2022/05/14 00:39:11;;;;;;;;;2.00;2.00;;;;;;;;5079813;27;45391;-76
2022/05/14 00:41:38;;;;;;;;;3.00;1.33;;;;;;;;5079961;27;45450;-75
2022/05/14 00:44:03;;;;;;;;;4.67;2.33;;;;;;;;5079321;27;46220;-76
2022/05/14 00:46:32;;;;;;;;;5.00;3.00;;;;;;;;5079419;28;45406;-76
2022/05/14 00:48:58;;;;;;;;;5.33;3.00;;;;;;;;5079807;28;45439;-77
2022/05/14 00:51:28;;;;;;;;;5.67;2.33;;;;;;;;5079567;27;45185;-76
2022/05/14 00:53:55;;;;;;;;;4.75;3.00;;;;;;;;5079268;27;46475;-77
2022/05/14 00:56:25;;;;;;;;;6.00;3.33;;;;;;;;5078948;27;45319;-77
2022/05/14 00:58:50;;;;;;;;;12.33;5.33;;;;;;;;5079310;27;45331;-77
2022/05/14 01:01:15;;;;;;;;;9.67;6.00;;;;;;;;5079631;28;45294;-77
2022/05/14 01:03:40;;;;;;;;;10.00;8.33;;;;;;;;5078748;27;45295;-76
2022/05/14 01:06:08;;;;;;;;;14.00;9.00;;;;;;;;5079283;28;45348;-77
2022/05/14 01:08:34;;;;;;;;;13.00;11.00;;;;;;;;5079063;27;45435;-77
2022/05/14 01:10:59;;;;;;;;;14.00;11.00;;;;;;;;5079320;27;45335;-78
2022/05/14 01:13:25;;;;;;;;;12.00;8.00;;;;;;;;5078891;28;46327;-76
2022/05/14 01:15:52;;;;;;;;;10.00;8.00;;;;;;;;5078901;27;45430;-76
2022/05/14 01:18:20;;;;;;;;;5.67;5.67;;;;;;;;5079237;27;45673;-75
2022/05/14 01:20:50;;;;;;;;;8.00;7.00;;;;;;;;5079208;27;45553;-77
2022/05/14 01:23:27;;;;;;;;;5.00;5.00;;;;;;;;5078811;27;45406;-78
2022/05/14 01:28:52;;;;;;;;;6.33;3.67;;;;;;;;5078703;28;45332;-77
2022/05/14 01:31:17;;;;;;;;;3.67;3.67;;;;;;;;5079198;28;45212;-76
2022/05/14 01:33:42;;;;;;;;;5.67;3.00;;;;;;;;5078600;28;46576;-76
2022/05/14 01:36:08;;;;;;;;;6.67;4.00;;;;;;;;5078729;28;45173;-76
2022/05/14 01:38:33;;;;;;;;;2.33;2.33;;;;;;;;5078954;27;45423;-77
2022/05/14 01:40:59;;;;;;;;;2.33;2.33;;;;;;;;5078952;28;45305;-78
2022/05/14 01:43:25;;;;;;;;;5.00;3.00;;;;;;;;5078530;27;46428;-77
2022/05/14 01:45:50;;;;;;;;;3.33;3.00;;;;;;;;5078572;28;45394;-77
2022/05/14 01:48:15;;;;;;;;;3.00;3.00;;;;;;;;5078713;28;45385;-77
2022/05/14 01:50:41;;;;;;;;;3.00;3.00;;;;;;;;5080094;28;45379;-76
2022/05/14 01:53:07;;;;;;;;;6.67;2.00;;;;;;;;5078359;27;47120;-76
2022/05/14 01:55:32;;;;;;;;;6.00;2.67;;;;;;;;5078533;27;45379;-76
2022/05/14 01:57:57;;;;;;;;;3.33;3.00;;;;;;;;5078491;27;45376;-77
2022/05/14 02:00:23;;;;;;;;;3.67;2.00;;;;;;;;5078586;27;45525;-76
2022/05/14 02:02:48;;;;;;;;;6.33;4.67;;;;;;;;5077150;27;45567;-75
2022/05/14 02:05:14;;;;;;;;;5.33;2.33;;;;;;;;5078441;27;45307;-76
2022/05/14 02:07:39;;;;;;;;;5.50;3.50;;;;;;;;5078630;27;45313;-75
2022/05/14 02:10:04;;;;;;;;;3.00;3.00;;;;;;;;5078401;27;45351;-76
2022/05/14 02:12:29;;;;;;;;;4.00;2.33;;;;;;;;5077866;27;47449;-76
2022/05/14 02:14:55;;;;;;;;;3.00;3.00;;;;;;;;5077632;27;45458;-76
2022/05/14 02:17:20;;;;;;;;;3.50;3.00;;;;;;;;5078211;27;45127;-76
2022/05/14 02:19:45;;;;;;;;;4.00;2.00;;;;;;;;5078435;27;45210;-76
2022/05/14 02:22:10;;;;;;;;;5.67;4.00;;;;;;;;5077872;27;45336;-77
2022/05/14 02:24:37;;;;;;;;;4.33;3.00;;;;;;;;5078278;28;45324;-76
2022/05/14 02:27:02;;;;;;;;;2.00;2.00;;;;;;;;5078299;27;45399;-75
2022/05/14 02:29:50;;;;;;;;;4.75;3.00;;;;;;;;5077958;27;45354;-76
2022/05/14 02:32:13;;;;;;;;;5.67;3.00;;;;;;;;5077536;28;46013;-77
2022/05/14 02:34:38;;;;;;;;;5.33;3.67;;;;;;;;5077912;28;45404;-76
2022/05/14 02:37:03;;;;;;;;;3.67;1.33;;;;;;;;5078128;27;45345;-77
2022/05/14 02:39:29;;;;;;;;;6.67;3.00;;;;;;;;5078211;27;45540;-76
2022/05/14 02:41:54;;;;;;;;;6.00;4.00;;;;;;;;5077880;27;46477;-76
2022/05/14 02:44:19;;;;;;;;;5.00;4.00;;;;;;;;5077643;27;45356;-77
2022/05/14 02:46:44;;;;;;;;;4.00;4.00;;;;;;;;5078040;27;45409;-76
2022/05/14 02:49:09;;;;;;;;;6.33;4.00;;;;;;;;5077850;27;45310;-76
2022/05/14 02:51:37;;;;;;;;;4.00;3.00;;;;;;;;5077721;28;46594;-76
2022/05/14 02:54:02;;;;;;;;;3.67;3.67;;;;;;;;5077629;28;45384;-77
2022/05/14 02:56:27;;;;;;;;;5.00;4.00;;;;;;;;5077742;27;45399;-75
2022/05/14 02:59:08;;;;;;;;;4.00;4.00;;;;;;;;5077831;27;45355;-76
2022/05/14 03:01:34;;;;;;;;;3.00;3.00;;;;;;;;5066126;27;46542;-76
2022/05/14 03:04:00;;;;;;;;;6.00;3.00;;;;;;;;5065299;28;45455;-76
2022/05/14 03:06:25;;;;;;;;;6.33;4.67;;;;;;;;5077652;28;45311;-76
2022/05/14 03:08:51;;;;;;;;;5.33;4.00;;;;;;;;5077835;28;45349;-77
2022/05/14 03:11:16;;;;;;;;;4.67;4.33;;;;;;;;5077131;27;45596;-76
2022/05/14 03:13:41;;;;;;;;;3.33;3.00;;;;;;;;5077397;27;45376;-76
2022/05/14 03:16:07;;;;;;;;;3.33;3.00;;;;;;;;5077488;27;45414;-77
2022/05/14 03:18:32;;;;;;;;;7.00;5.67;;;;;;;;5077762;27;45257;-75
2022/05/14 03:20:58;;;;;;;;;6.67;5.00;;;;;;;;5077102;27;45534;-74
2022/05/14 03:23:24;;;;;;;;;5.00;3.33;;;;;;;;5077207;27;45170;-77
2022/05/14 03:25:49;;;;;;;;;8.00;4.33;;;;;;;;5078786;27;45210;-77
2022/05/14 03:28:15;;;;;;;;;9.00;4.00;;;;;;;;5080860;27;45476;-76
2022/05/14 03:30:40;;;;;;;;;6.00;4.00;;;;;;;;5080921;27;45466;-77
2022/05/14 03:33:06;;;;;;;;;5.00;5.00;;;;;;;;5080611;27;45383;-76
2022/05/14 03:35:31;;;;;;;;;4.33;4.33;;;;;;;;5081006;27;45301;-76
2022/05/14 03:37:56;;;;;;;;;13.33;7.33;;;;;;;;5080975;27;45425;-76
2022/05/14 03:40:21;;;;;;;;;5.33;4.00;;;;;;;;5080454;27;45539;-75
2022/05/14 03:42:46;;;;;;;;;5.00;4.00;;;;;;;;5080618;27;45367;-75
2022/05/14 03:45:12;;;;;;;;;6.00;5.00;;;;;;;;5080661;27;45379;-76
2022/05/14 03:47:37;;;;;;;;;7.00;5.00;;;;;;;;5080813;27;45295;-76
2022/05/14 03:50:04;;;;;;;;;5.00;5.00;;;;;;;;5080288;27;46523;-76
2022/05/14 03:52:29;;;;;;;;;4.00;2.33;;;;;;;;5080159;27;45323;-76
2022/05/14 03:54:54;;;;;;;;;4.67;4.67;;;;;;;;5080677;28;45331;-76
2022/05/14 03:57:20;;;;;;;;;6.67;3.67;;;;;;;;5080445;27;45297;-76
2022/05/14 03:59:46;;;;;;;;;6.33;5.00;;;;;;;;5080279;28;46563;-76
2022/05/14 04:02:12;;;;;;;;;6.00;5.67;;;;;;;;5080208;27;45406;-76
2022/05/14 04:04:38;;;;;;;;;5.00;4.00;;;;;;;;5080138;27;45247;-76
2022/05/14 04:07:03;;;;;;;;;9.00;5.00;;;;;;;;5080701;27;45216;-76
2022/05/14 04:09:28;;;;;;;;;4.25;3.00;;;;;;;;5080000;27;45486;-76
2022/05/14 04:11:54;;;;;;;;;6.00;4.67;;;;;;;;5080260;27;45410;-75
2022/05/14 04:14:20;;;;;;;;;5.00;5.00;;;;;;;;5080024;27;45300;-75
2022/05/14 04:16:45;;;;;;;;;4.75;3.25;;;;;;;;5080384;27;45517;-76
2022/05/14 04:19:11;;;;;;;;;6.33;5.67;;;;;;;;5080048;27;46318;-76
2022/05/14 04:21:37;;;;;;;;;10.67;8.00;;;;;;;;5079977;27;45432;-77
2022/05/14 04:24:02;;;;;;;;;7.75;4.00;;;;;;;;5079891;27;45300;-75
2022/05/14 04:26:28;;;;;;;;;5.00;5.00;;;;;;;;5080292;27;45430;-75
2022/05/14 04:28:53;;;;;;;;;5.00;5.00;;;;;;;;5079761;28;45554;-76
2022/05/14 04:31:21;;;;;;;;;6.67;5.00;;;;;;;;5079871;28;45302;-76
2022/05/14 04:33:46;;;;;;;;;5.67;5.00;;;;;;;;5079880;27;45248;-75
2022/05/14 04:36:12;;;;;;;;;7.33;4.67;;;;;;;;5079972;27;45271;-76
2022/05/14 04:38:37;;;;;;;;;6.50;4.50;;;;;;;;5078991;27;47326;-75
2022/05/14 04:41:02;;;;;;;;;4.67;4.67;;;;;;;;5079777;27;45304;-76
2022/05/14 04:43:27;;;;;;;;;6.33;4.00;;;;;;;;5080001;27;45375;-76
2022/05/14 04:45:53;;;;;;;;;5.00;5.00;;;;;;;;5079968;27;45330;-75
2022/05/14 04:48:18;;;;;;;;;10.00;7.67;;;;;;;;5079601;27;46147;-76
2022/05/14 04:50:45;;;;;;;;;4.33;2.67;;;;;;;;5079426;27;46332;-76
2022/05/14 04:53:11;;;;;;;;;5.67;4.67;;;;;;;;5079600;27;45228;-75
2022/05/14 04:55:36;;;;;;;;;10.67;7.00;;;;;;;;5079594;27;45453;-75
2022/05/14 04:58:02;;;;;;;;;6.00;6.00;;;;;;;;5079395;27;46188;-76
2022/05/14 05:00:28;;;;;;;;;8.00;7.00;;;;;;;;5079186;27;45493;-76
2022/05/14 05:05:37;;;;;;;;;12.00;5.33;;;;;;;;5079639;27;45220;-74
2022/05/14 05:08:02;;;;;;;;;8.00;6.00;;;;;;;;5078969;27;46525;-75
2022/05/14 05:10:28;;;;;;;;;8.00;5.00;;;;;;;;5079373;27;45247;-76
2022/05/14 05:12:53;;;;;;;;;6.00;5.00;;;;;;;;5079177;27;45611;-77
2022/05/14 05:15:19;;;;;;;;;7.00;5.00;;;;;;;;5079292;27;45515;-75
2022/05/14 05:17:44;;;;;;;;;7.00;6.00;;;;;;;;5078989;27;45534;-75
2022/05/14 05:20:09;;;;;;;;;4.00;4.00;;;;;;;;5078927;27;45380;-76
2022/05/14 05:22:35;;;;;;;;;5.00;5.00;;;;;;;;5079148;27;45327;-75
2022/05/14 05:25:01;;;;;;;;;8.33;3.67;;;;;;;;5079211;27;45335;-75
2022/05/14 05:27:26;;;;;;;;;8.00;4.00;;;;;;;;5078937;27;46007;-75
2022/05/14 05:29:51;;;;;;;;;8.00;5.00;;;;;;;;5078528;28;45406;-75
2022/05/14 05:32:16;;;;;;;;;8.00;5.00;;;;;;;;5078892;27;45402;-75
2022/05/14 05:34:42;;;;;;;;;6.00;6.00;;;;;;;;5079309;28;45346;-75
2022/05/14 05:37:07;;;;;;;;;7.00;5.67;;;;;;;;5078613;27;46851;-76
2022/05/14 05:39:32;;;;;;;;;5.00;5.00;;;;;;;;5078918;27;45345;-76
2022/05/14 05:41:58;;;;;;;;;6.00;6.00;;;;;;;;5078958;27;45344;-76
2022/05/14 05:44:24;;;;;;;;;10.00;7.00;;;;;;;;5079083;28;45363;-76
2022/05/14 05:46:49;;;;;;;;;6.00;5.33;;;;;;;;5078469;27;46128;-75
2022/05/14 05:49:14;;;;;;;;;8.67;6.00;;;;;;;;5076977;28;45491;-75
2022/05/14 05:51:40;;;;;;;;;7.00;6.00;;;;;;;;5078857;27;45300;-76
2022/05/14 05:56:56;;;;;;;;;9.33;9.33;;;;;;;;5078183;28;45671;-76
2022/05/14 05:59:22;;;;;;;;;8.00;6.00;;;;;;;;5078143;27;45415;-76
2022/05/14 06:01:47;;;;;;;;;8.33;8.00;;;;;;;;5078609;27;45863;-76
2022/05/14 06:04:12;;;;;;;;;11.67;8.00;;;;;;;;5078582;27;45431;-76
2022/05/14 06:06:41;;;;;;;;;14.00;8.33;;;;;;;;5078448;27;46509;-76
2022/05/14 06:09:07;;;;;;;;;10.67;8.00;;;;;;;;5078371;27;45430;-76
2022/05/14 06:11:32;;;;;;;;;11.00;9.00;;;;;;;;5078412;27;45366;-76
2022/05/14 06:13:58;;;;;;;;;6.00;5.00;;;;;;;;5078527;27;45275;-76
2022/05/14 06:16:24;;;;;;;;;12.67;9.33;;;;;;;;5078018;28;45487;-75
2022/05/14 06:18:49;;;;;;;;;14.67;11.33;;;;;;;;5076839;28;45233;-76
2022/05/14 06:21:14;;;;;;;;;8.00;8.00;;;;;;;;5078309;27;45621;-77
2022/05/14 06:23:40;;;;;;;;;14.33;12.33;;;;;;;;5077979;27;45327;-77
2022/05/14 06:26:05;;;;;;;;;16.67;10.00;;;;;;;;5078018;27;45999;-76
2022/05/14 06:28:30;;;;;;;;;10.67;10.00;;;;;;;;5077791;27;45307;-76
2022/05/14 06:30:56;;;;;;;;;16.00;13.67;;;;;;;;5078050;27;45299;-77
2022/05/14 06:33:21;;;;;;;;;13.00;11.67;;;;;;;;5078307;27;45283;-76
2022/05/14 06:35:47;;;;;;;;;17.33;13.33;;;;;;;;5077578;27;45453;-77
2022/05/14 06:38:13;;;;;;;;;9.00;8.67;;;;;;;;5077952;28;45467;-76
2022/05/14 06:40:39;;;;;;;;;12.67;12.33;;;;;;;;5077811;27;45307;-77
2022/05/14 06:43:04;;;;;;;;;14.33;12.67;;;;;;;;5078149;27;45275;-77
2022/05/14 06:45:30;;;;;;;;;13.67;11.67;;;;;;;;5077262;27;45533;-77
2022/05/14 06:47:55;;;;;;;;;16.67;13.00;;;;;;;;5077548;27;45165;-76
2022/05/14 06:50:21;;;;;;;;;15.00;11.67;;;;;;;;5077765;28;45328;-76
2022/05/14 06:52:48;;;;;;;;;14.67;10.67;;;;;;;;5077972;27;45476;-78
2022/05/14 06:55:16;;;;;;;;;19.67;14.33;;;;;;;;5077491;27;46810;-76
2022/05/14 06:57:41;;;;;;;;;15.67;14.67;;;;;;;;5077013;28;45412;-77
2022/05/14 07:00:07;;;;;;;;;14.33;14.33;;;;;;;;5076891;27;45404;-78
2022/05/14 07:02:33;;;;;;;;;11.33;9.00;;;;;;;;5077748;27;45330;-76
2022/05/14 07:07:43;;;;;;;;;10.33;9.33;;;;;;;;5077382;28;45353;-76
2022/05/14 07:10:09;;;;;;;;;12.67;9.67;;;;;;;;5077592;27;45367;-76
2022/05/14 07:12:34;;;;;;;;;12.67;7.33;;;;;;;;5077750;27;45339;-77
2022/05/14 07:15:01;;;;;;;;;18.67;13.00;;;;;;;;5077183;28;46158;-77
2022/05/14 07:17:27;;;;;;;;;10.00;10.00;;;;;;;;5077567;28;45301;-76
2022/05/14 07:19:52;;;;;;;;;10.67;9.33;;;;;;;;5077219;27;45248;-76
2022/05/14 07:22:18;;;;;;;;;15.00;11.33;;;;;;;;5077836;27;45469;-76
2022/05/14 07:24:43;;;;;;;;;20.33;15.00;;;;;;;;5077044;27;46402;-76
2022/05/14 07:27:11;;;;;;;;;15.33;12.33;;;;;;;;5077316;27;45420;-76
2022/05/14 07:29:40;;;;;;;;;11.33;11.00;;;;;;;;5077368;27;45280;-76
2022/05/14 07:32:05;;;;;;;;;13.33;11.00;;;;;;;;5077268;27;45422;-76
2022/05/14 07:34:31;;;;;;;;;15.00;11.33;;;;;;;;5077050;27;45552;-77
2022/05/14 07:37:02;;;;;;;;;13.67;12.67;;;;;;;;5077187;28;45237;-76
2022/05/14 07:39:31;;;;;;;;;13.00;10.00;;;;;;;;5077138;27;45333;-76
2022/05/14 07:41:59;;;;;;;;;13.33;9.33;;;;;;;;5077495;27;45411;-76
2022/05/14 07:44:28;;;;;;;;;17.00;13.67;;;;;;;;5076504;28;45517;-76
2022/05/14 07:46:53;;;;;;;;;12.00;11.67;;;;;;;;5076109;28;45403;-76
2022/05/14 07:49:21;;;;;;;;;14.00;11.33;;;;;;;;5076648;27;45607;-76
2022/05/14 07:51:46;;;;;;;;;14.00;12.33;;;;;;;;5077186;27;45415;-76
2022/05/14 07:54:11;;;;;;;;;12.00;9.67;;;;;;;;5076625;27;47051;-76
2022/05/14 07:56:38;;;;;;;;;13.33;9.33;;;;;;;;5075611;27;45461;-76
2022/05/14 07:59:03;;;;;;;;;12.33;8.67;;;;;;;;5076654;27;45335;-76
2022/05/14 08:01:30;;;;;;;;;11.33;11.33;;;;;;;;5076584;27;45434;-76
2022/05/14 08:03:56;;;;;;;;;16.33;11.67;;;;;;;;5076535;28;46200;-78
2022/05/14 08:06:22;;;;;;;;;11.33;9.33;;;;;;;;5076344;27;45494;-76
2022/05/14 08:08:48;;;;;;;;;16.33;10.67;;;;;;;;5076877;27;45362;-76
2022/05/14 08:11:13;;;;;;;;;12.00;10.33;;;;;;;;5076667;27;45437;-76
2022/05/14 08:13:38;;;;;;;;;10.33;8.00;;;;;;;;5078977;27;45530;-76
2022/05/14 08:16:04;;;;;;;;;11.33;11.00;;;;;;;;5079638;27;45277;-75
2022/05/14 08:18:30;;;;;;;;;11.00;7.00;;;;;;;;5080115;27;45242;-76
2022/05/14 08:20:55;;;;;;;;;13.00;9.33;;;;;;;;5079928;27;45318;-76
2022/05/14 08:26:05;;;;;;;;;11.67;9.00;;;;;;;;5079602;28;45304;-75
2022/05/14 08:28:31;;;;;;;;;10.33;6.33;;;;;;;;5079889;27;45405;-75
2022/05/14 08:30:56;;;;;;;;;11.67;7.33;;;;;;;;5079799;27;45405;-77
2022/05/14 08:33:22;;;;;;;;;10.33;8.33;;;;;;;;5079819;27;45413;-76
2022/05/14 08:35:47;;;;;;;;;12.33;7.67;;;;;;;;5079657;28;45236;-76
2022/05/14 08:38:14;;;;;;;;;5.33;5.00;;;;;;;;5079592;27;45280;-76
2022/05/14 08:40:58;;;;;;;;;31.33;26.67;;;;;;;;5080136;27;45374;-76
2022/05/14 08:43:24;;;;;;;;;9.33;7.33;;;;;;;;5079422;27;46658;-76
2022/05/14 08:45:49;;;;;;;;;7.00;6.33;;;;;;;;5079375;27;45362;-75
2022/05/14 08:48:14;;;;;;;;;8.33;7.00;;;;;;;;5079712;28;45268;-75
2022/05/14 08:50:41;;;;;;;;;7.33;7.00;;;;;;;;5079534;27;45315;-77
2022/05/14 08:53:08;;;;;;;;;7.33;6.33;;;;;;;;5079367;28;46866;-76
2022/05/14 08:55:38;;;;;;;;;8.33;7.00;;;;;;;;5079291;27;45549;-76
2022/05/14 08:58:12;;;;;;;;;10.33;7.00;;;;;;;;5079435;27;45418;-76
2022/05/14 09:00:38;;;;;;;;;9.00;7.00;;;;;;;;5079386;28;46365;-76
2022/05/14 09:03:03;;;;;;;;;10.33;6.33;;;;;;;;5079416;27;46183;-76
2022/05/14 09:05:31;;;;;;;;;7.00;6.00;;;;;;;;5079319;27;45272;-76
2022/05/14 09:07:57;;;;;;;;;74.25;59.75;;;;;;;;5079419;27;45291;-76
2022/05/14 09:10:25;;;;;;;;;10.00;8.33;;;;;;;;5079560;27;45312;-76
2022/05/14 09:12:52;;;;;;;;;9.33;7.00;;;;;;;;5078881;27;47227;-76
2022/05/14 09:15:18;;;;;;;;;11.33;9.33;;;;;;;;5079211;28;45285;-77
2022/05/14 09:17:43;;;;;;;;;12.00;9.67;;;;;;;;5079225;28;45432;-75
2022/05/14 09:20:09;;;;;;;;;10.00;6.33;;;;;;;;5079316;27;45412;-76
2022/05/14 09:22:34;;;;;;;;;11.67;11.67;;;;;;;;5079405;27;45891;-75
2022/05/14 09:25:03;;;;;;;;;12.00;10.67;;;;;;;;5078610;27;45564;-76
2022/05/14 09:27:41;;;;;;;;;11.00;7.67;;;;;;;;5079202;27;45346;-77
2022/05/14 09:30:07;;;;;;;;;7.33;6.00;;;;;;;;5079151;27;45278;-76
2022/05/14 09:32:38;;;;;;;;;7.00;7.00;;;;;;;;5078626;27;47699;-76
2022/05/14 09:35:15;;;;;;;;;7.33;6.33;;;;;;;;5078857;27;45351;-75
2022/05/14 09:37:41;;;;;;;;;9.00;7.00;;;;;;;;5079019;27;45248;-78
2022/05/14 09:40:19;;;;;;;;;6.33;5.67;;;;;;;;5078861;27;45358;-76
2022/05/14 09:42:46;;;;;;;;;7.67;6.00;;;;;;;;5078642;27;45741;-78
2022/05/14 09:45:21;;;;;;;;;6.00;4.00;;;;;;;;5078642;27;45305;-78
2022/05/14 09:47:47;;;;;;;;;7.67;5.00;;;;;;;;5078902;27;45601;-77
2022/05/14 09:50:17;;;;;;;;;8.00;6.67;;;;;;;;5078693;27;45320;-76
2022/05/14 09:52:52;;;;;;;;;13.00;9.00;;;;;;;;5078477;27;45543;-78
2022/05/14 09:55:18;;;;;;;;;7.33;6.33;;;;;;;;5078760;27;45469;-78
2022/05/14 09:57:47;;;;;;;;;7.33;6.33;;;;;;;;5078195;27;45930;-75
2022/05/14 10:00:21;;;;;;;;;7.67;6.67;;;;;;;;5078003;27;45381;-74
2022/05/14 10:02:55;;;;;;;;;6.67;6.00;;;;;;;;5078157;27;46019;-74
2022/05/14 10:05:32;;;;;;;;;7.33;4.67;;;;;;;;5078197;28;45382;-74
2022/05/14 10:08:04;;;;;;;;;4.00;2.33;;;;;;;;5078468;27;45450;-79
2022/05/14 10:10:29;;;;;;;;;7.00;5.00;;;;;;;;5077259;27;45363;-76
2022/05/14 10:13:02;;;;;;;;;7.67;7.00;;;;;;;;5077259;27;45461;-76
2022/05/14 10:15:48;;;;;;;;;7.00;5.67;;;;;;;;5075000;28;45405;-75
2022/05/14 10:18:25;;;;;;;;;7.00;6.00;;;;;;;;5078233;27;45315;-78
2022/05/14 10:20:56;;;;;;;;;7.00;6.00;;;;;;;;5077748;27;45405;-76
2022/05/14 10:28:52;;;;;;;;;5.33;5.33;;;;;;;;5078064;28;45303;-76
2022/05/14 10:31:23;;;;;;;;;101.75;99.75;;;;;;;;5077462;27;45311;-77
2022/05/14 10:33:50;;;;;;;;;7.00;6.67;;;;;;;;5077514;27;45362;-75
2022/05/14 10:36:36;;;;;;;;;16.00;14.50;;;;;;;;5076497;27;45297;-75
2022/05/14 10:39:05;;;;;;;;;7.00;6.33;;;;;;;;5077300;27;45339;-78
2022/05/14 10:41:33;;;;;;;;;6.75;6.75;;;;;;;;5077979;28;45466;-78
2022/05/14 10:44:01;;;;;;;;;5.33;4.00;;;;;;;;5077515;28;46182;-76
2022/05/14 10:46:27;;;;;;;;;4.00;4.00;;;;;;;;5077397;27;45915;-78
2022/05/14 10:48:58;;;;;;;;;6.00;6.00;;;;;;;;5077818;27;45303;-76
2022/05/14 10:51:28;;;;;;;;;5.33;4.67;;;;;;;;5077985;27;45357;-78
2022/05/14 10:53:54;;;;;;;;;6.67;4.67;;;;;;;;5077530;27;46259;-76
2022/05/14 10:56:33;;;;;;;;;6.33;5.00;;;;;;;;5077204;28;45382;-79
2022/05/14 10:59:19;;;;;;;;;6.67;6.00;;;;;;;;5078060;27;45245;-77
2022/05/14 11:01:46;;;;;;;;;8.00;6.00;;;;;;;;5015080;28;45461;-79
2022/05/14 11:04:20;;;;;;;;;6.00;4.67;;;;;;;;5014923;28;46589;-75
2022/05/14 11:06:49;;;;;;;;;10.67;6.00;;;;;;;;5014821;28;45312;-76
2022/05/14 11:09:18;;;;;;;;;9.00;6.67;;;;;;;;5015130;28;45322;-75
2022/05/14 11:11:49;;;;;;;;;6.00;6.00;;;;;;;;5014740;28;45489;-76
2022/05/14 11:14:15;;;;;;;;;9.67;7.33;;;;;;;;5014556;28;45966;-75
2022/05/14 11:16:40;;;;;;;;;6.67;6.67;;;;;;;;5014812;28;45401;-77
2022/05/14 11:19:07;;;;;;;;;8.00;6.33;;;;;;;;5014917;28;45812;-74
2022/05/14 11:21:35;;;;;;;;;7.00;6.00;;;;;;;;5015113;28;45352;-74
2022/05/14 11:24:01;;;;;;;;;11.00;7.67;;;;;;;;5012896;28;45820;-74
2022/05/14 11:26:27;;;;;;;;;8.33;7.00;;;;;;;;5010490;28;45243;-75
2022/05/14 11:29:10;;;;;;;;;8.00;6.33;;;;;;;;5014914;28;45405;-74
2022/05/14 11:31:39;;;;;;;;;7.67;6.67;;;;;;;;5012806;28;45532;-75
2022/05/14 11:34:15;;;;;;;;;6.00;5.67;;;;;;;;5013879;28;45532;-75
2022/05/14 11:36:44;;;;;;;;;8.00;5.00;;;;;;;;4996692;28;45423;-76
2022/05/14 11:39:22;;;;;;;;;7.00;6.33;;;;;;;;5048790;27;45661;-77
2022/05/14 11:41:48;;;;;;;;;8.33;6.33;;;;;;;;5090348;27;45343;-75
2022/05/14 11:44:25;;;;;;;;;31.33;28.33;;;;;;;;5088359;27;46241;-75
2022/05/14 11:46:51;;;;;;;;;13.00;10.00;;;;;;;;5082574;27;45515;-78
2022/05/14 11:49:20;;;;;;;;;39.00;32.67;;;;;;;;5091893;27;45389;-76
2022/05/14 11:51:54;;;;;;;;;13.67;13.67;;;;;;;;5078253;27;45447;-77
2022/05/14 11:54:22;;;;;;;;;18.33;14.33;;;;;;;;5089143;27;45528;-75
2022/05/14 11:56:57;;;;;;;;;10.00;8.67;;;;;;;;5080006;27;45475;-74
2022/05/14 11:59:25;;;;;;;;;13.67;9.00;;;;;;;;5077985;27;45208;-75
2022/05/14 12:01:51;;;;;;;;;14.00;11.33;;;;;;;;5079625;27;45531;-75
2022/05/14 12:04:23;;;;;;;;;11.33;8.00;;;;;;;;5083016;27;46424;-74
2022/05/14 12:07:06;;;;;;;;;13.33;10.33;;;;;;;;5099759;27;45243;-76
2022/05/14 12:09:50;;;;;;;;;9.00;8.00;;;;;;;;5082166;27;45320;-77
2022/05/14 12:12:22;;;;;;;;;8.00;7.00;;;;;;;;5088476;27;45653;-76
2022/05/14 12:14:47;;;;;;;;;11.00;9.67;;;;;;;;5084606;27;46097;-76
2022/05/14 12:17:18;;;;;;;;;15.67;9.33;;;;;;;;5084068;27;45327;-78
2022/05/14 12:19:44;;;;;;;;;9.33;9.33;;;;;;;;5081016;27;45220;-76
2022/05/14 12:22:15;;;;;;;;;11.33;9.00;;;;;;;;5080374;27;45596;-77
2022/05/14 12:24:41;;;;;;;;;6.67;6.67;;;;;;;;5080376;27;45422;-76
2022/05/14 12:27:16;;;;;;;;;9.67;8.67;;;;;;;;5079988;27;45448;-78
2022/05/14 12:29:51;;;;;;;;;10.00;7.33;;;;;;;;5080386;27;45210;-79
2022/05/14 12:35:00;;;;;;;;;9.00;6.00;;;;;;;;5081333;27;45814;-78
2022/05/14 12:37:27;;;;;;;;;7.33;7.00;;;;;;;;5079777;27;45224;-78
2022/05/14 12:39:55;;;;;;;;;6.33;5.67;;;;;;;;5088779;27;45231;-80
2022/05/14 12:42:36;;;;;;;;;10.33;6.00;;;;;;;;5088741;27;45517;-77
2022/05/14 12:45:02;;;;;;;;;6.67;6.67;;;;;;;;5081246;27;47240;-76
2022/05/14 12:47:28;;;;;;;;;6.00;6.00;;;;;;;;5096124;27;45513;-74
2022/05/14 12:49:54;;;;;;;;;11.00;8.33;;;;;;;;5089075;27;45442;-75
2022/05/14 12:52:21;;;;;;;;;11.67;8.33;;;;;;;;5083373;27;45135;-76
2022/05/14 12:54:48;;;;;;;;;12.33;6.67;;;;;;;;5079242;27;45521;-81
2022/05/14 12:57:14;;;;;;;;;10.33;8.67;;;;;;;;5079193;27;45304;-76
2022/05/14 12:59:39;;;;;;;;;7.00;7.00;;;;;;;;5078767;28;45438;-77
2022/05/14 13:02:25;;;;;;;;;10.33;7.67;;;;;;;;5079648;28;45214;-76
2022/05/14 13:04:54;;;;;;;;;9.33;8.00;;;;;;;;5079004;28;46129;-77
2022/05/14 13:07:19;;;;;;;;;4.67;4.67;;;;;;;;5079174;27;45330;-76
2022/05/14 13:09:45;;;;;;;;;8.67;8.67;;;;;;;;5079462;27;45402;-76
2022/05/14 13:12:29;;;;;;;;;9.33;6.00;;;;;;;;5079296;27;45541;-75
2022/05/14 13:14:56;;;;;;;;;7.33;5.33;;;;;;;;5079011;28;45693;-75
2022/05/14 13:17:28;;;;;;;;;6.00;4.33;;;;;;;;5078848;27;45434;-75
2022/05/14 13:19:55;;;;;;;;;8.00;6.33;;;;;;;;5079258;27;45357;-75
2022/05/14 13:22:32;;;;;;;;;7.33;7.00;;;;;;;;5079365;27;45443;-74
2022/05/14 13:24:59;;;;;;;;;7.33;7.33;;;;;;;;5078833;27;46545;-74
2022/05/14 13:27:29;;;;;;;;;6.00;6.00;;;;;;;;5078936;28;45327;-77
2022/05/14 13:30:14;;;;;;;;;8.67;7.33;;;;;;;;5079050;27;45325;-76
2022/05/14 13:32:39;;;;;;;;;7.67;6.67;;;;;;;;5079040;27;45588;-75
2022/05/14 13:37:54;;;;;;;;;7.67;6.00;;;;;;;;5078752;28;45374;-77
2022/05/14 13:40:46;;;;;;;;;7.00;5.33;;;;;;;;5079065;28;45337;-76
2022/05/14 13:43:29;;;;;;;;;9.33;6.00;;;;;;;;5076803;27;45462;-78
2022/05/14 13:45:54;;;;;;;;;6.33;5.00;;;;;;;;5078602;27;45420;-78
2022/05/14 13:48:26;;;;;;;;;6.33;5.67;;;;;;;;5078511;27;45455;-76
2022/05/14 13:50:59;;;;;;;;;7.33;5.00;;;;;;;;5078865;27;45271;-78
2022/05/14 13:53:35;;;;;;;;;6.00;6.00;;;;;;;;5085149;27;45473;-77
2022/05/14 13:56:03;;;;;;;;;4.00;4.00;;;;;;;;5087274;27;45317;-77
2022/05/14 13:58:29;;;;;;;;;9.00;7.00;;;;;;;;5077753;27;45396;-77
2022/05/14 14:00:55;;;;;;;;;10.33;7.00;;;;;;;;5077809;27;45687;-79
2022/05/14 14:03:24;;;;;;;;;9.00;9.00;;;;;;;;5077746;27;45394;-80
2022/05/14 14:05:50;;;;;;;;;7.00;6.33;;;;;;;;5077128;27;45457;-74
2022/05/14 14:08:19;;;;;;;;;7.00;7.00;;;;;;;;5077500;27;45371;-75
2022/05/14 14:10:44;;;;;;;;;6.00;5.00;;;;;;;;5076707;27;45336;-78
2022/05/14 14:13:10;;;;;;;;;8.33;6.67;;;;;;;;5078174;27;45462;-76
2022/05/14 14:15:38;;;;;;;;;10.00;10.00;;;;;;;;5077209;27;45584;-75
2022/05/14 14:18:04;;;;;;;;;5.00;5.00;;;;;;;;5082752;27;45375;-73
2022/05/14 14:20:31;;;;;;;;;22.00;21.67;;;;;;;;5077376;27;45459;-75
2022/05/14 14:23:00;;;;;;;;;5.00;5.00;;;;;;;;5077769;27;45336;-78
2022/05/14 14:25:28;;;;;;;;;9.00;6.00;;;;;;;;5077521;27;45426;-75
2022/05/14 14:27:54;;;;;;;;;5.33;5.00;;;;;;;;5081765;27;45451;-75
2022/05/14 14:30:19;;;;;;;;;8.00;6.00;;;;;;;;5097618;27;45385;-77
2022/05/14 14:32:44;;;;;;;;;5.67;5.67;;;;;;;;5098312;27;45388;-76
2022/05/14 14:35:09;;;;;;;;;6.67;6.00;;;;;;;;5095162;27;46680;-72
2022/05/14 14:37:38;;;;;;;;;8.67;6.00;;;;;;;;5089602;27;45470;-74
2022/05/14 14:40:05;;;;;;;;;6.67;6.67;;;;;;;;5078985;27;45460;-77
2022/05/14 14:42:30;;;;;;;;;7.00;7.00;;;;;;;;5097125;27;45498;-75
2022/05/14 14:44:55;;;;;;;;;6.00;6.00;;;;;;;;5076199;27;46120;-79
2022/05/14 14:47:20;;;;;;;;;9.00;6.00;;;;;;;;5060164;27;45422;-80
2022/05/14 14:49:45;;;;;;;;;7.33;6.00;;;;;;;;5057135;28;45396;-79
2022/05/14 14:52:11;;;;;;;;;4.33;4.33;;;;;;;;5057550;28;45280;-77
2022/05/14 14:54:36;;;;;;;;;7.67;7.67;;;;;;;;5057067;28;47102;-77
2022/05/14 14:57:02;;;;;;;;;6.33;6.33;;;;;;;;5057206;28;45402;-75
2022/05/14 14:59:27;;;;;;;;;6.00;5.67;;;;;;;;5057343;28;45362;-78
2022/05/14 15:01:59;;;;;;;;;8.33;6.00;;;;;;;;5056967;28;45242;-77
2022/05/14 15:04:27;;;;;;;;;9.67;6.00;;;;;;;;5057026;28;46784;-81